createdAt,value
2022-10-21T00:04:15.825Z,98.9
2022-10-21T00:14:15.868Z,99
2022-10-21T00:54:15.961Z,99.3
2022-10-21T01:24:15.992Z,99.4
2022-10-21T01:44:16.046Z,99.5
2022-10-21T01:54:16.058Z,99.5
2022-10-21T02:14:16.143Z,99.1
2022-10-21T02:24:16.075Z,98.9
2022-10-21T02:54:16.174Z,98.4
2022-10-21T03:24:28.067Z,98
2022-10-21T03:34:16.207Z,97.9
2022-10-21T03:44:16.269Z,97.9
2022-10-21T04:14:16.333Z,97.3
2022-10-21T04:24:16.319Z,97.1
2022-10-21T04:44:16.352Z,96.8
2022-10-21T05:04:16.414Z,96.7
2022-10-21T05:14:20.031Z,96.6
2022-10-21T05:24:16.433Z,96.5
2022-10-21T05:34:16.429Z,96.7
2022-10-21T05:44:16.477Z,96.8
2022-10-21T06:04:16.525Z,97.8
2022-10-21T06:14:16.501Z,97.9
2022-10-21T06:24:16.539Z,97.9
2022-10-21T07:24:22.137Z,96.7
2022-10-21T07:44:16.682Z,96.5
2022-10-21T08:04:16.752Z,96.4
2022-10-21T08:14:16.763Z,96.3
2022-10-21T08:34:16.776Z,96.4
2022-10-21T08:44:16.761Z,96.6
2022-10-21T09:24:16.895Z,98
2022-10-21T09:34:16.873Z,98.2
2022-10-21T09:44:16.891Z,98.4
2022-10-21T10:14:16.969Z,98.9
2022-10-21T10:24:16.971Z,99
2022-10-21T10:34:17.101Z,99.1
2022-10-21T10:44:16.981Z,99.2
2022-10-21T10:54:17.135Z,99.2
2022-10-21T11:04:17.021Z,99.2
2022-10-21T11:14:20.250Z,99.2
2022-10-21T11:24:17.072Z,99.2
2022-10-21T11:34:17.195Z,99
2022-10-21T11:44:17.088Z,98.9
2022-10-21T11:54:17.222Z,98.4
2022-10-21T12:04:17.121Z,97.9
2022-10-21T12:14:17.272Z,97.4
2022-10-21T12:24:17.160Z,95.8
2022-10-21T12:34:17.301Z,93.9
2022-10-21T12:44:17.183Z,92.6
2022-10-21T12:54:17.234Z,92.9
2022-10-21T13:04:17.227Z,92.6
2022-10-21T13:14:17.248Z,91.3
2022-10-21T13:24:17.262Z,91.7
2022-10-21T13:34:17.323Z,91.6
2022-10-21T13:44:17.294Z,91.6
2022-10-21T13:54:17.328Z,91.4
2022-10-21T14:04:17.337Z,90.7
2022-10-21T14:24:17.399Z,89.3
2022-10-21T14:34:17.367Z,88.5
2022-10-21T14:44:17.397Z,88.4
2022-10-21T14:54:17.416Z,87.1
2022-10-21T15:04:17.477Z,87.5
2022-10-21T15:14:17.440Z,88.2
2022-10-21T15:24:17.454Z,88.5
2022-10-21T15:34:17.463Z,88.7
2022-10-21T15:44:17.494Z,89.3
2022-10-21T15:54:17.487Z,90.2
2022-10-21T16:04:17.517Z,91.2
2022-10-21T16:24:17.635Z,92.9
2022-10-21T16:34:17.586Z,93.8
2022-10-21T16:44:17.612Z,94.1
2022-10-21T16:54:17.606Z,94.2
2022-10-21T17:04:17.651Z,94.8
2022-10-21T17:14:17.634Z,95.1
2022-10-21T17:24:17.661Z,95.1
2022-10-21T17:34:17.668Z,95.2
2022-10-21T17:44:17.721Z,95.4
2022-10-21T17:54:17.706Z,96
2022-10-21T18:04:17.751Z,96.1
2022-10-21T18:14:17.732Z,96.3
2022-10-21T18:24:17.800Z,96.5
2022-10-21T18:34:17.775Z,96.6
2022-10-21T18:44:17.831Z,97.1
2022-10-21T19:14:17.868Z,97.6
2022-10-21T19:24:17.876Z,97.7
2022-10-21T19:34:17.893Z,97.8
2022-10-21T19:44:17.894Z,97.4
2022-10-21T19:54:17.941Z,96.9
2022-10-21T20:04:17.939Z,96.7
2022-10-21T20:14:17.985Z,96.7
2022-10-21T20:24:17.965Z,96.8
2022-10-21T20:34:18.004Z,97
2022-10-21T20:44:18.011Z,97
2022-10-21T20:54:18.051Z,97.5
2022-10-21T21:04:18.023Z,97.9
2022-10-21T21:14:18.097Z,98
2022-10-21T21:24:18.066Z,98.2
2022-10-21T21:34:18.114Z,98
2022-10-21T21:44:18.115Z,98.3
2022-10-21T21:54:18.154Z,98.3
2022-10-21T22:04:18.165Z,98.5
2022-10-21T22:14:18.221Z,98.6
2022-10-21T22:24:18.187Z,98.6
2022-10-21T22:34:18.222Z,98.8
2022-10-21T22:44:18.248Z,98.9
2022-10-21T22:54:36.033Z,98.9
2022-10-21T23:04:18.289Z,98.9
2022-10-21T23:14:18.320Z,99
2022-10-21T23:24:18.305Z,99.1
2022-10-21T23:34:18.337Z,99.1
2022-10-21T23:44:18.335Z,99.2
2022-10-21T23:54:18.402Z,99.2
